createdAt,value
2019-03-18T06:17:54.644Z,4.00
2019-03-18T06:20:23.018Z,4.42
2019-03-18T06:22:51.405Z,4.33
2019-03-18T06:25:19.806Z,4.15
2019-03-18T06:27:48.272Z,4.65
2019-03-18T06:30:17.706Z,5.05
2019-03-18T06:32:46.096Z,6.35
2019-03-18T06:35:14.486Z,5.90
2019-03-18T06:37:42.878Z,5.70
2019-03-18T06:40:14.856Z,6.22
2019-03-18T06:42:43.255Z,3.67
2019-03-18T06:45:12.216Z,7.40
2019-03-18T06:47:40.579Z,7.70
2019-03-18T06:50:12.776Z,4.15
2019-03-18T06:52:41.168Z,3.75
2019-03-18T06:55:09.688Z,3.92
2019-03-18T06:57:38.082Z,5.90
2019-03-18T07:00:14.375Z,3.22
2019-03-18T07:02:42.763Z,6.80
2019-03-18T07:05:11.238Z,6.65
2019-03-18T07:07:39.674Z,8.85
2019-03-18T07:10:14.328Z,4.30
2019-03-18T07:12:42.764Z,4.10
2019-03-18T07:15:11.608Z,4.22
2019-03-18T07:17:40.297Z,3.92
2019-03-18T07:20:10.813Z,4.03
2019-03-18T07:25:07.514Z,3.30
2019-03-18T07:27:35.894Z,4.47
2019-03-18T07:30:14.924Z,2.90
2019-03-18T07:32:43.400Z,4.15
2019-03-18T07:35:11.938Z,3.22
2019-03-18T07:37:40.660Z,5.10
2019-03-18T07:40:12.110Z,6.97
2019-03-18T07:42:40.492Z,2.45
2019-03-18T07:45:10.529Z,3.10
2019-03-18T07:47:39.188Z,3.42
2019-03-18T07:50:12.545Z,2.87
2019-03-18T07:52:40.940Z,7.83
2019-03-18T07:55:09.687Z,4.40
2019-03-18T07:57:38.090Z,4.35
2019-03-18T08:00:11.892Z,5.70
2019-03-18T08:02:40.271Z,2.77
2019-03-18T08:05:09.794Z,5.08
2019-03-18T08:07:38.177Z,3.33
2019-03-18T08:10:10.015Z,5.40
2019-03-18T08:12:38.667Z,3.55
2019-03-18T08:15:09.292Z,3.67
2019-03-18T08:20:12.071Z,3.17
2019-03-18T08:22:40.445Z,4.95
2019-03-18T08:25:10.491Z,5.00
2019-03-18T08:27:38.859Z,7.53
2019-03-18T08:30:14.380Z,2.65
2019-03-18T08:32:42.776Z,3.72
2019-03-18T08:35:11.165Z,2.90
2019-03-18T08:37:39.545Z,2.65
2019-03-18T08:40:12.001Z,2.83
2019-03-18T08:42:40.385Z,2.58
2019-03-18T08:45:12.997Z,3.55
2019-03-18T08:47:41.453Z,5.15
2019-03-18T08:50:12.414Z,4.70
2019-03-18T08:52:41.005Z,2.77
2019-03-18T08:55:10.536Z,1.72
2019-03-18T08:57:38.987Z,2.40
2019-03-18T09:00:12.585Z,3.50
2019-03-18T09:02:40.973Z,5.15
2019-03-18T09:05:10.400Z,2.12
2019-03-18T09:07:38.777Z,3.55
2019-03-18T09:10:15.999Z,3.98
2019-03-18T09:12:44.438Z,3.62
2019-03-18T09:15:13.782Z,2.75
2019-03-18T09:17:42.196Z,3.83
2019-03-18T09:20:17.635Z,2.08
2019-03-18T09:22:46.008Z,3.27
2019-03-18T09:25:14.480Z,2.80
2019-03-18T09:27:42.919Z,2.83
2019-03-18T09:30:21.265Z,3.25
2019-03-18T09:32:49.649Z,2.67
2019-03-18T09:35:18.048Z,3.67
2019-03-18T09:37:46.674Z,8.33
2019-03-18T09:40:16.098Z,4.22
2019-03-18T09:42:44.490Z,3.80
2019-03-18T09:45:17.315Z,4.37
2019-03-18T09:47:45.703Z,2.40
2019-03-18T09:50:15.032Z,3.90
2019-03-18T09:52:43.408Z,3.60
2019-03-18T09:55:12.466Z,3.52
2019-03-18T09:57:40.851Z,4.10
2019-03-18T10:00:15.102Z,3.52
2019-03-18T10:02:43.467Z,3.35
2019-03-18T10:05:11.856Z,2.33
2019-03-18T10:07:40.243Z,6.70
2019-03-18T10:10:10.775Z,3.83
2019-03-18T10:15:12.342Z,3.77
2019-03-18T10:17:40.720Z,4.47
2019-03-18T10:20:09.656Z,3.92
2019-03-18T10:22:38.054Z,4.42
2019-03-18T10:25:07.766Z,2.77
2019-03-18T10:27:37.712Z,6.80
2019-03-18T10:30:13.890Z,2.20
2019-03-18T10:32:42.268Z,5.25
2019-03-18T10:35:10.793Z,2.95
2019-03-18T10:37:39.186Z,3.15
2019-03-18T10:40:12.569Z,4.05
2019-03-18T10:42:41.130Z,5.30
2019-03-18T10:45:11.064Z,3.90
2019-03-18T10:47:39.454Z,3.62
2019-03-18T10:50:11.057Z,3.80
2019-03-18T10:52:39.446Z,4.00
2019-03-18T10:55:09.294Z,5.62
2019-03-18T10:57:37.743Z,2.70
2019-03-18T11:00:31.325Z,3.20
2019-03-18T11:02:59.724Z,3.62
2019-03-18T11:05:28.107Z,2.33
2019-03-18T11:07:56.497Z,2.15
2019-03-18T11:10:24.889Z,5.60
2019-03-18T11:12:53.272Z,4.78
2019-03-18T11:15:22.404Z,2.17
2019-03-18T11:17:50.797Z,1.87
2019-03-18T11:20:19.205Z,2.58
2019-03-18T11:22:47.586Z,1.50
2019-03-18T11:25:16.809Z,3.27
2019-03-18T11:27:45.300Z,3.42
2019-03-18T11:30:17.680Z,4.10
2019-03-18T11:32:46.077Z,1.50
2019-03-18T11:35:14.553Z,1.90
2019-03-18T11:37:42.957Z,1.65
2019-03-18T11:40:17.167Z,3.22
2019-03-18T11:42:45.625Z,4.87
2019-03-18T11:45:15.247Z,3.72
2019-03-18T11:47:43.926Z,1.97
2019-03-18T11:50:14.624Z,2.27
2019-03-18T11:52:43.040Z,3.58
2019-03-18T11:55:14.643Z,2.37
2019-03-18T11:57:43.069Z,2.77
2019-03-18T12:00:19.552Z,2.92
2019-03-18T12:02:47.958Z,2.67
2019-03-18T12:05:18.898Z,4.00
2019-03-18T12:07:47.277Z,2.92
2019-03-18T12:10:20.587Z,2.60
2019-03-18T12:12:49.264Z,5.47
2019-03-18T12:15:21.406Z,2.22
2019-03-18T12:17:49.214Z,1.90
2019-03-18T12:20:24.463Z,2.67
2019-03-18T12:22:47.709Z,0.65
2019-03-18T12:25:16.096Z,2.47
2019-03-18T12:27:44.513Z,1.98
2019-03-18T12:30:21.136Z,1.95
2019-03-18T12:32:49.551Z,2.20
2019-03-18T12:35:17.926Z,2.50
2019-03-18T12:37:46.686Z,2.30
2019-03-18T12:40:16.048Z,1.40
2019-03-18T12:42:44.679Z,1.95
2019-03-18T12:45:16.802Z,2.98
2019-03-18T12:47:45.528Z,1.10
2019-03-18T12:50:42.943Z,1.85
2019-03-18T12:55:22.287Z,1.60
2019-03-18T12:57:50.670Z,1.22
2019-03-18T13:00:31.040Z,1.20
2019-03-18T13:02:59.429Z,1.98
2019-03-18T13:05:27.822Z,1.17
2019-03-18T13:07:56.216Z,1.45
2019-03-18T13:10:24.685Z,1.65
2019-03-18T13:12:53.069Z,1.00
2019-03-18T13:15:21.554Z,2.60
2019-03-18T13:17:49.923Z,1.27
2019-03-18T13:20:21.795Z,1.12
2019-03-18T13:22:53.572Z,1.45
2019-03-18T13:25:20.300Z,0.72
2019-03-18T13:27:48.680Z,1.90
2019-03-18T13:30:18.981Z,1.47
2019-03-18T13:32:47.608Z,3.12
2019-03-18T13:35:16.399Z,1.90
2019-03-18T13:37:44.848Z,2.42
2019-03-18T13:40:16.895Z,3.40
2019-03-18T13:42:45.279Z,2.22
2019-03-18T13:45:15.552Z,1.75
2019-03-18T13:47:43.946Z,1.90
2019-03-18T13:50:17.757Z,0.93
2019-03-18T13:52:46.302Z,1.47
2019-03-18T13:55:14.696Z,1.42
2019-03-18T13:57:43.117Z,1.62
2019-03-18T14:00:14.628Z,1.30
2019-03-18T14:02:43.007Z,0.98
2019-03-18T14:05:11.461Z,2.30
2019-03-18T14:07:39.840Z,2.30
2019-03-18T14:10:19.821Z,1.17
2019-03-18T14:12:48.276Z,1.65
2019-03-18T14:15:26.306Z,2.85
2019-03-18T14:17:54.706Z,3.10
2019-03-18T14:20:27.778Z,1.22
2019-03-18T14:22:56.490Z,1.20
2019-03-18T14:25:24.877Z,1.25
2019-03-18T14:27:53.339Z,1.95
2019-03-18T14:30:22.582Z,1.55
2019-03-18T14:32:50.948Z,1.10
2019-03-18T14:35:21.678Z,2.95
2019-03-18T14:37:49.450Z,0.88
2019-03-18T14:40:21.926Z,0.35
2019-03-18T14:42:50.317Z,1.35
2019-03-18T14:45:20.913Z,1.00
2019-03-18T14:50:17.836Z,1.27
2019-03-18T14:52:46.877Z,0.30
2019-03-18T14:55:16.390Z,0.47
2019-03-18T14:57:44.785Z,1.27
2019-03-18T15:00:26.313Z,2.62
2019-03-18T15:02:54.713Z,0.62
2019-03-18T15:05:23.096Z,0.82
2019-03-18T15:07:51.487Z,1.07
2019-03-18T15:10:23.665Z,1.22
2019-03-18T15:12:52.057Z,1.77
2019-03-18T15:15:20.510Z,0.75
2019-03-18T15:17:48.979Z,2.47
2019-03-18T15:20:24.455Z,1.02
2019-03-18T15:22:52.860Z,0.95
2019-03-18T15:25:27.256Z,1.55
2019-03-18T15:27:55.652Z,0.88
2019-03-18T15:30:24.036Z,2.92
2019-03-18T15:32:52.512Z,1.40
2019-03-18T15:35:20.888Z,2.90
2019-03-18T15:37:49.285Z,0.90
2019-03-18T15:40:23.419Z,1.40
2019-03-18T15:42:51.807Z,1.10
2019-03-18T15:45:21.338Z,0.68
2019-03-18T15:47:49.726Z,2.75
2019-03-18T15:50:20.118Z,1.50
2019-03-18T15:52:48.681Z,1.62
2019-03-18T15:55:17.060Z,2.72
2019-03-18T15:57:45.472Z,0.68
2019-03-18T16:00:15.790Z,1.70
2019-03-18T16:02:44.202Z,0.75
2019-03-18T16:05:12.578Z,1.40
2019-03-18T16:07:40.963Z,0.95
2019-03-18T16:10:15.131Z,0.60
2019-03-18T16:12:44.282Z,1.20
2019-03-18T16:15:16.932Z,0.90
2019-03-18T16:17:45.372Z,1.42
2019-03-18T16:20:19.303Z,1.70
2019-03-18T16:22:47.733Z,0.80
2019-03-18T16:25:16.110Z,1.60
2019-03-18T16:27:44.508Z,1.85
2019-03-18T16:30:18.532Z,2.75
2019-03-18T16:32:46.920Z,2.85
2019-03-18T16:35:16.513Z,3.05
2019-03-18T16:37:45.108Z,1.83
2019-03-18T16:40:23.838Z,3.20
2019-03-18T16:42:52.233Z,0.68
2019-03-18T16:45:20.892Z,0.75
2019-03-18T16:47:49.263Z,2.50
2019-03-18T16:50:28.200Z,0.75
2019-03-18T16:52:56.585Z,1.12
2019-03-18T16:55:24.985Z,1.42
2019-03-18T16:57:53.395Z,2.50
2019-03-18T17:00:23.147Z,1.87
2019-03-18T17:02:51.529Z,4.17
2019-03-18T17:05:19.925Z,1.12
2019-03-18T17:07:48.313Z,2.22
2019-03-18T17:10:53.569Z,2.20
2019-03-18T17:13:21.948Z,1.70
2019-03-18T17:15:50.342Z,6.15
2019-03-18T17:18:18.738Z,2.27
2019-03-18T17:20:47.122Z,1.95
2019-03-18T17:23:15.747Z,3.80
2019-03-18T17:25:44.146Z,2.05
2019-03-18T17:28:12.523Z,3.37
2019-03-18T17:30:40.945Z,1.30
2019-03-18T17:33:09.327Z,1.65
2019-03-18T17:35:37.713Z,1.85
2019-03-18T17:38:06.100Z,2.70
2019-03-18T17:40:34.500Z,2.55
2019-03-18T17:43:02.903Z,2.05
2019-03-18T17:45:31.284Z,2.08
2019-03-18T17:47:59.967Z,4.58
2019-03-18T17:50:31.680Z,2.75
2019-03-18T17:53:03.829Z,5.03
2019-03-18T17:55:31.847Z,5.10
2019-03-18T17:58:00.232Z,4.25
2019-03-18T18:00:32.374Z,5.45
2019-03-18T18:03:00.380Z,6.60
2019-03-18T18:05:28.769Z,4.50
2019-03-18T18:07:57.148Z,3.75
2019-03-18T18:10:25.544Z,4.70
2019-03-18T18:12:53.927Z,5.95
2019-03-18T18:15:22.308Z,5.40
2019-03-18T18:17:50.779Z,5.22
2019-03-18T18:20:19.460Z,5.12
2019-03-18T18:22:47.831Z,2.87
2019-03-18T18:25:16.684Z,2.50
2019-03-18T18:27:45.096Z,3.98
2019-03-18T18:30:17.551Z,6.37
2019-03-18T18:32:45.978Z,2.95
2019-03-18T18:35:14.462Z,6.75
2019-03-18T18:37:42.914Z,5.95
2019-03-18T18:40:17.292Z,5.00
2019-03-18T18:42:45.701Z,3.35
2019-03-18T18:45:14.303Z,4.62
2019-03-18T18:47:42.689Z,3.42
2019-03-18T18:50:12.110Z,5.97
2019-03-18T18:52:40.492Z,4.62
2019-03-18T18:55:10.542Z,7.47
2019-03-18T18:57:38.979Z,3.85
2019-03-18T19:00:15.453Z,6.45
2019-03-18T19:02:43.936Z,8.88
2019-03-18T19:05:14.041Z,5.80
2019-03-18T19:07:42.709Z,8.15
2019-03-18T19:10:13.683Z,9.35
2019-03-18T19:12:42.072Z,10.50
2019-03-18T19:15:28.156Z,10.38
2019-03-18T19:17:56.548Z,8.63
2019-03-18T19:20:24.939Z,7.33
2019-03-18T19:22:53.338Z,8.73
2019-03-18T19:25:21.737Z,9.30
2019-03-18T19:27:50.197Z,7.85
2019-03-18T19:30:20.680Z,10.93
2019-03-18T19:32:49.089Z,5.78
2019-03-18T19:35:17.624Z,7.95
2019-03-18T19:37:46.008Z,4.92
2019-03-18T19:40:22.755Z,5.53
2019-03-18T19:42:51.156Z,8.13
2019-03-18T19:45:19.523Z,7.55
2019-03-18T19:47:47.929Z,4.17
2019-03-18T19:50:27.865Z,4.17
2019-03-18T19:52:56.252Z,6.78
2019-03-18T19:55:24.641Z,3.83
2019-03-18T19:57:53.103Z,5.58
2019-03-18T20:00:24.837Z,4.40
2019-03-18T20:02:53.271Z,6.17
2019-03-18T20:05:21.644Z,8.15
2019-03-18T20:07:50.030Z,5.90
2019-03-18T20:10:19.249Z,6.90
2019-03-18T20:12:47.626Z,7.53
2019-03-18T20:15:16.961Z,3.37
2019-03-18T20:17:45.405Z,4.22
2019-03-18T20:20:17.703Z,4.40
2019-03-18T20:22:46.084Z,4.97
2019-03-18T20:25:14.648Z,5.20
2019-03-18T20:27:43.040Z,4.85
2019-03-18T20:30:18.041Z,6.78
2019-03-18T20:32:46.421Z,8.05
2019-03-18T20:35:19.586Z,8.43
2019-03-18T20:37:48.121Z,7.30
2019-03-18T20:40:17.080Z,7.85
2019-03-18T20:42:45.624Z,14.07
2019-03-18T20:45:18.054Z,6.12
2019-03-18T20:47:46.428Z,5.35
2019-03-18T20:50:17.222Z,7.40
2019-03-18T20:52:45.611Z,6.55
2019-03-18T20:55:15.249Z,8.35
2019-03-18T20:57:43.625Z,6.17
2019-03-18T21:00:14.824Z,9.73
2019-03-18T21:02:43.211Z,12.15
2019-03-18T21:05:11.599Z,7.75
2019-03-18T21:07:39.981Z,9.55
2019-03-18T21:10:11.446Z,6.87
2019-03-18T21:12:41.319Z,8.28
2019-03-18T21:15:12.389Z,6.60
2019-03-18T21:17:40.775Z,6.17
2019-03-18T21:20:19.574Z,13.80
2019-03-18T21:22:48.771Z,8.65
2019-03-18T21:25:17.172Z,7.85
2019-03-18T21:27:45.550Z,8.23
2019-03-18T21:30:16.851Z,6.95
2019-03-18T21:32:45.306Z,8.98
2019-03-18T21:35:13.761Z,10.63
2019-03-18T21:37:42.190Z,8.13
2019-03-18T21:40:15.686Z,10.58
2019-03-18T21:42:44.070Z,10.13
2019-03-18T21:45:23.601Z,9.18
2019-03-18T21:47:52.400Z,8.28
2019-03-18T21:50:20.845Z,12.13
2019-03-18T21:52:49.220Z,11.33
2019-03-18T21:55:17.619Z,10.15
2019-03-18T21:57:46.076Z,12.07
2019-03-18T22:00:17.247Z,10.18
2019-03-18T22:02:45.618Z,13.18
2019-03-18T22:05:14.340Z,13.40
2019-03-18T22:07:42.720Z,9.08
2019-03-18T22:10:20.972Z,13.75
2019-03-18T22:12:49.414Z,14.87
2019-03-18T22:15:18.192Z,12.07
2019-03-18T22:17:46.604Z,12.25
2019-03-18T22:20:16.331Z,10.48
2019-03-18T22:22:44.805Z,8.80
2019-03-18T22:25:14.127Z,9.65
2019-03-18T22:27:42.579Z,7.72
2019-03-18T22:30:18.172Z,10.40
2019-03-18T22:32:46.936Z,9.50
2019-03-18T22:35:15.326Z,10.03
2019-03-18T22:37:43.984Z,7.50
2019-03-18T22:40:18.674Z,10.20
2019-03-18T22:42:47.071Z,13.55
2019-03-18T22:45:18.554Z,10.23
2019-03-18T22:47:46.942Z,11.03
2019-03-18T22:50:16.752Z,12.60
2019-03-18T22:52:45.153Z,10.18
2019-03-18T22:55:14.749Z,10.70
2019-03-18T22:57:43.438Z,7.10
2019-03-18T23:00:26.736Z,9.73
2019-03-18T23:02:55.193Z,12.68
2019-03-18T23:05:23.570Z,9.25
2019-03-18T23:07:51.969Z,10.93
2019-03-18T23:10:20.339Z,9.25
2019-03-18T23:12:48.736Z,11.80
2019-03-18T23:15:17.117Z,8.15
2019-03-18T23:17:45.512Z,11.60
2019-03-18T23:20:14.294Z,8.43
2019-03-18T23:22:42.781Z,9.98
2019-03-18T23:25:11.259Z,9.85
2019-03-18T23:27:39.661Z,10.23
2019-03-18T23:30:10.685Z,7.70
2019-03-18T23:32:39.395Z,10.48
2019-03-18T23:35:09.577Z,8.20
2019-03-18T23:37:37.976Z,6.53
2019-03-18T23:40:11.408Z,8.73
2019-03-18T23:42:39.799Z,9.25
2019-03-18T23:45:09.615Z,10.75
2019-03-18T23:47:38.017Z,10.18
2019-03-18T23:50:09.463Z,7.97
2019-03-18T23:52:37.845Z,8.25
2019-03-18T23:55:18.398Z,9.60
2019-03-18T23:57:37.987Z,8.70
